createdAt,value
2023-01-17T00:00:15.220Z,4.60
2023-01-17T00:02:43.492Z,4.50
2023-01-17T00:05:29.184Z,4.50
2023-01-17T00:08:14.602Z,4.50
2023-01-17T00:10:44.101Z,4.50
2023-01-17T00:13:12.264Z,4.50
2023-01-17T00:15:40.479Z,4.40
2023-01-17T00:18:08.722Z,4.40
2023-01-17T00:20:54.447Z,4.50
2023-01-17T00:23:56.280Z,4.40
2023-01-17T00:26:25.966Z,4.30
2023-01-17T00:28:52.942Z,4.30
2023-01-17T00:31:20.651Z,4.30
2023-01-17T00:33:47.723Z,4.20
2023-01-17T00:36:14.716Z,4.30
2023-01-17T00:38:44.946Z,4.20
2023-01-17T00:41:14.958Z,4.20
2023-01-17T00:44:04.337Z,4.20
2023-01-17T00:46:52.504Z,4.10
2023-01-17T00:49:39.221Z,4.20
2023-01-17T00:52:24.563Z,4.20
2023-01-17T00:55:09.999Z,4.10
2023-01-17T00:57:55.404Z,4.10
2023-01-17T01:00:42.421Z,4.10
2023-01-17T01:03:28.589Z,4.20
2023-01-17T01:06:14.433Z,4.20
2023-01-17T01:09:00.374Z,4.30
2023-01-17T01:11:46.333Z,4.30
2023-01-17T01:14:31.725Z,4.20
2023-01-17T01:17:18.920Z,4.30
2023-01-17T01:20:04.499Z,4.30
2023-01-17T01:22:50.097Z,4.30
2023-01-17T01:25:35.570Z,4.40
2023-01-17T01:28:25.306Z,4.40
2023-01-17T01:31:10.918Z,4.50
2023-01-17T01:33:40.471Z,4.50
2023-01-17T01:36:09.968Z,4.50
2023-01-17T01:38:38.461Z,4.50
2023-01-17T01:41:06.847Z,4.60
2023-01-17T01:43:46.579Z,4.60
2023-01-17T01:46:18.311Z,4.60
2023-01-17T01:48:52.830Z,4.60
2023-01-17T01:51:25.070Z,4.60
2023-01-17T01:53:59.783Z,4.60
2023-01-17T01:56:29.837Z,4.50
2023-01-17T01:59:00.282Z,4.60
2023-01-17T02:01:29.043Z,4.60
2023-01-17T02:03:58.779Z,4.60
2023-01-17T02:06:31.299Z,4.50
2023-01-17T02:09:03.320Z,4.50
2023-01-17T02:11:32.332Z,4.40
2023-01-17T02:14:00.667Z,4.50
2023-01-17T02:16:46.431Z,4.60
2023-01-17T02:19:38.211Z,4.50
2023-01-17T02:22:36.883Z,4.50
2023-01-17T02:25:27.032Z,4.60
2023-01-17T02:28:09.586Z,4.70
2023-01-17T02:30:42.182Z,4.80
2023-01-17T02:33:23.920Z,4.80
2023-01-17T02:35:59.589Z,4.70
2023-01-17T02:38:39.407Z,4.70
2023-01-17T02:41:12.522Z,4.50
2023-01-17T02:43:41.411Z,4.50
2023-01-17T02:46:11.057Z,4.60
2023-01-17T02:48:40.585Z,4.60
2023-01-17T02:51:45.079Z,4.50
2023-01-17T02:54:38.912Z,4.50
2023-01-17T02:57:23.531Z,4.60
2023-01-17T03:00:00.593Z,4.70
2023-01-17T03:02:38.361Z,4.60
2023-01-17T03:05:13.794Z,4.60
2023-01-17T03:07:44.408Z,4.60
2023-01-17T03:10:13.909Z,4.60
2023-01-17T03:12:42.492Z,4.70
2023-01-17T03:15:13.092Z,4.60
2023-01-17T03:17:47.703Z,4.70
2023-01-17T03:20:16.155Z,4.80
2023-01-17T03:22:44.341Z,4.70
2023-01-17T03:25:12.567Z,4.80
2023-01-17T03:27:40.762Z,4.70
2023-01-17T03:30:10.346Z,4.80
2023-01-17T03:32:39.253Z,4.80
2023-01-17T03:35:13.795Z,4.80
2023-01-17T03:40:27.340Z,4.80
2023-01-17T03:43:01.339Z,4.70
2023-01-17T03:45:34.687Z,4.60
2023-01-17T03:48:04.655Z,4.60
2023-01-17T03:50:34.474Z,4.70
2023-01-17T03:53:03.216Z,4.70
2023-01-17T03:55:33.456Z,4.60
2023-01-17T04:00:46.933Z,4.60
2023-01-17T04:03:18.148Z,4.70
2023-01-17T04:05:55.554Z,4.70
2023-01-17T04:08:25.867Z,4.70
2023-01-17T04:10:56.267Z,4.70
2023-01-17T04:13:24.762Z,4.70
2023-01-17T04:15:55.839Z,4.80
2023-01-17T04:18:25.764Z,4.80
2023-01-17T04:20:59.242Z,4.80
2023-01-17T04:23:29.745Z,4.70
2023-01-17T04:26:06.488Z,4.80
2023-01-17T04:28:34.710Z,4.80
2023-01-17T04:31:03.933Z,4.80
2023-01-17T04:33:33.517Z,4.80
2023-01-17T04:36:09.057Z,4.80
2023-01-17T04:38:37.217Z,4.80
2023-01-17T04:41:06.215Z,4.80
2023-01-17T04:43:36.453Z,4.80
2023-01-17T04:46:18.842Z,4.80
2023-01-17T04:48:48.287Z,4.60
2023-01-17T04:51:20.146Z,4.60
2023-01-17T04:53:49.890Z,4.50
2023-01-17T04:56:20.449Z,4.40
2023-01-17T04:58:50.051Z,4.40
2023-01-17T05:01:20.798Z,4.30
2023-01-17T05:03:49.124Z,4.30
2023-01-17T05:06:34.090Z,4.30
2023-01-17T05:09:03.143Z,4.30
2023-01-17T05:11:33.766Z,4.20
2023-01-17T05:14:02.281Z,4.20
2023-01-17T05:16:33.704Z,4.10
2023-01-17T05:19:04.635Z,3.90
2023-01-17T05:21:43.454Z,3.80
2023-01-17T05:24:14.189Z,3.70
2023-01-17T05:26:45.090Z,3.60
2023-01-17T05:29:17.001Z,3.50
2023-01-17T05:31:47.616Z,3.40
2023-01-17T05:34:17.461Z,3.30
2023-01-17T05:36:50.375Z,3.10
2023-01-17T05:39:18.752Z,3.00
2023-01-17T05:41:50.405Z,3.00
2023-01-17T05:44:18.580Z,2.90
2023-01-17T05:46:50.276Z,2.90
2023-01-17T05:49:28.743Z,2.80
2023-01-17T05:52:03.571Z,2.80
2023-01-17T05:54:35.551Z,2.60
2023-01-17T05:57:07.605Z,2.60
2023-01-17T05:59:38.767Z,2.60
2023-01-17T06:02:08.149Z,2.60
2023-01-17T06:04:41.842Z,2.60
2023-01-17T06:07:13.495Z,2.50
2023-01-17T06:09:44.074Z,2.40
2023-01-17T06:12:12.766Z,2.50
2023-01-17T06:14:45.888Z,2.40
2023-01-17T06:17:15.803Z,2.40
2023-01-17T06:19:46.283Z,2.40
2023-01-17T06:22:18.625Z,2.40
2023-01-17T06:24:48.228Z,2.30
2023-01-17T06:27:16.448Z,2.30
2023-01-17T06:29:47.043Z,2.40
2023-01-17T06:32:24.072Z,2.40
2023-01-17T06:35:01.085Z,2.50
2023-01-17T06:37:30.703Z,2.60
2023-01-17T06:40:01.913Z,2.50
2023-01-17T06:42:32.524Z,2.50
2023-01-17T06:45:09.737Z,2.60
2023-01-17T06:47:40.309Z,2.60
2023-01-17T06:50:10.359Z,2.60
2023-01-17T06:52:47.010Z,2.50
2023-01-17T06:55:18.332Z,2.50
2023-01-17T06:57:52.704Z,2.40
2023-01-17T07:00:24.181Z,2.40
2023-01-17T07:02:54.598Z,2.40
2023-01-17T07:05:31.233Z,2.30
2023-01-17T07:08:24.832Z,2.30
2023-01-17T07:11:00.180Z,2.20
2023-01-17T07:13:30.731Z,2.20
2023-01-17T07:16:02.314Z,2.20
2023-01-17T07:18:32.763Z,2.20
2023-01-17T07:21:04.622Z,2.20
2023-01-17T07:23:34.918Z,2.20
2023-01-17T07:26:04.631Z,2.10
2023-01-17T07:28:32.746Z,2.10
2023-01-17T07:31:05.487Z,2.20
2023-01-17T07:33:33.687Z,2.20
2023-01-17T07:36:05.644Z,2.20
2023-01-17T07:38:35.579Z,2.20
2023-01-17T07:41:04.113Z,2.30
2023-01-17T07:43:38.953Z,2.30
2023-01-17T07:46:11.093Z,2.40
2023-01-17T07:48:41.651Z,2.40
2023-01-17T07:51:12.466Z,2.50
2023-01-17T07:53:46.393Z,2.50
2023-01-17T07:56:20.354Z,2.60
2023-01-17T07:58:51.128Z,2.70
2023-01-17T08:01:25.844Z,2.70
2023-01-17T08:03:57.960Z,2.70
2023-01-17T08:06:29.288Z,2.80
2023-01-17T08:09:13.736Z,2.80
2023-01-17T08:12:00.103Z,2.80
2023-01-17T08:14:40.558Z,2.80
2023-01-17T08:17:11.742Z,2.90
2023-01-17T08:19:39.917Z,2.90
2023-01-17T08:22:08.494Z,2.90
2023-01-17T08:24:37.971Z,3.00
2023-01-17T08:27:06.169Z,3.10
2023-01-17T08:29:34.262Z,3.30
2023-01-17T08:32:02.452Z,3.40
2023-01-17T08:34:30.694Z,3.40
2023-01-17T08:36:58.803Z,3.50
2023-01-17T08:39:27.724Z,3.50
2023-01-17T08:41:57.742Z,3.50
2023-01-17T08:44:25.947Z,3.40
2023-01-17T08:46:54.126Z,3.40
2023-01-17T08:49:22.327Z,3.50
2023-01-17T08:51:51.829Z,3.40
2023-01-17T08:54:22.359Z,3.40
2023-01-17T08:56:50.523Z,3.50
2023-01-17T08:59:20.026Z,3.60
2023-01-17T09:01:48.286Z,3.60
2023-01-17T09:04:17.014Z,3.70
2023-01-17T09:06:48.238Z,3.80
2023-01-17T09:09:17.492Z,3.80
2023-01-17T09:11:45.676Z,3.90
2023-01-17T09:14:14.339Z,4.00
2023-01-17T09:16:43.978Z,4.10
2023-01-17T09:19:12.171Z,4.20
2023-01-17T09:21:40.410Z,4.30
2023-01-17T09:24:08.720Z,4.30
2023-01-17T09:26:37.039Z,4.40
2023-01-17T09:29:05.264Z,4.50
2023-01-17T09:31:33.490Z,4.50
2023-01-17T09:34:03.341Z,4.60
2023-01-17T09:36:33.969Z,4.60
2023-01-17T09:39:05.363Z,4.60
2023-01-17T09:41:35.870Z,4.70
2023-01-17T09:44:10.641Z,4.90
2023-01-17T09:46:42.751Z,4.80
2023-01-17T09:49:23.162Z,4.80
2023-01-17T09:51:53.441Z,4.70
2023-01-17T09:58:07.372Z,4.70
2023-01-17T10:00:47.294Z,4.80
2023-01-17T10:03:36.409Z,4.70
2023-01-17T10:06:27.162Z,4.80
2023-01-17T10:09:23.988Z,4.90
2023-01-17T10:12:05.851Z,5.10
2023-01-17T10:14:55.870Z,5.30
2023-01-17T10:17:36.603Z,5.30
2023-01-17T10:20:21.177Z,5.40
2023-01-17T10:23:22.535Z,5.10
2023-01-17T10:25:55.141Z,5.30
2023-01-17T10:28:27.736Z,5.20
2023-01-17T10:31:04.661Z,5.30
2023-01-17T10:33:43.670Z,5.40
2023-01-17T10:36:23.740Z,5.50
2023-01-17T10:38:57.416Z,5.40
2023-01-17T10:41:32.661Z,5.40
2023-01-17T10:44:15.846Z,5.50
2023-01-17T10:46:53.762Z,5.50
2023-01-17T10:49:25.764Z,5.40
2023-01-17T10:52:09.147Z,5.50
2023-01-17T10:55:27.265Z,5.40
2023-01-17T10:58:02.123Z,5.40
2023-01-17T11:00:51.492Z,5.50
2023-01-17T11:03:22.002Z,5.50
2023-01-17T11:06:23.712Z,5.50
2023-01-17T11:08:56.424Z,5.40
2023-01-17T11:11:35.421Z,5.60
2023-01-17T11:14:16.139Z,5.70
2023-01-17T11:16:49.214Z,5.70
2023-01-17T11:19:27.695Z,5.70
2023-01-17T11:22:02.439Z,5.70
2023-01-17T11:24:39.822Z,5.70
2023-01-17T11:27:29.427Z,5.80
2023-01-17T11:30:09.294Z,5.70
2023-01-17T11:32:37.642Z,5.70
2023-01-17T11:35:26.441Z,5.70
2023-01-17T11:38:12.653Z,5.70
2023-01-17T11:40:52.787Z,5.70
2023-01-17T11:43:28.691Z,5.70
2023-01-17T11:46:08.555Z,5.70
2023-01-17T11:48:39.278Z,5.50
2023-01-17T11:51:23.944Z,5.50
2023-01-17T11:54:08.649Z,5.50
2023-01-17T11:56:38.407Z,5.60
2023-01-17T11:59:34.833Z,5.40
2023-01-17T12:02:37.829Z,5.40
2023-01-17T12:05:29.951Z,5.30
2023-01-17T12:08:08.511Z,5.50
2023-01-17T12:10:44.167Z,5.50
2023-01-17T12:13:36.903Z,5.50
2023-01-17T12:16:31.142Z,5.30
2023-01-17T12:19:13.812Z,5.20
2023-01-17T12:21:50.192Z,5.20
2023-01-17T12:24:47.552Z,5.20
2023-01-17T12:27:23.866Z,5.20
2023-01-17T12:30:09.325Z,5.30
2023-01-17T12:33:04.159Z,5.40
2023-01-17T12:35:39.924Z,5.40
2023-01-17T12:38:23.650Z,5.30
2023-01-17T12:41:05.577Z,5.30
2023-01-17T12:43:44.776Z,5.40
2023-01-17T12:46:21.651Z,5.30
2023-01-17T12:49:04.257Z,5.30
2023-01-17T12:51:38.605Z,5.30
2023-01-17T12:54:21.973Z,5.20
2023-01-17T12:56:53.761Z,5.30
2023-01-17T12:59:31.906Z,5.30
2023-01-17T13:02:03.574Z,5.30
2023-01-17T13:04:46.889Z,5.40
2023-01-17T13:07:33.866Z,5.40
2023-01-17T13:10:12.808Z,5.20
2023-01-17T13:12:41.280Z,5.20
2023-01-17T13:15:26.029Z,5.30
2023-01-17T13:18:02.013Z,5.40
2023-01-17T13:20:35.943Z,5.60
2023-01-17T13:23:13.661Z,5.50
2023-01-17T13:25:49.395Z,5.40
2023-01-17T13:28:31.875Z,5.60
2023-01-17T13:31:28.945Z,5.70
2023-01-17T13:34:27.143Z,5.80
2023-01-17T13:37:14.780Z,5.80
2023-01-17T13:40:00.359Z,5.80
2023-01-17T13:42:45.687Z,5.80
2023-01-17T13:45:22.849Z,5.90
2023-01-17T13:47:56.342Z,5.80
2023-01-17T13:50:53.232Z,5.80
2023-01-17T13:53:57.340Z,5.80
2023-01-17T13:56:38.727Z,5.70
2023-01-17T13:59:39.517Z,5.60
2023-01-17T14:02:37.323Z,5.50
2023-01-17T14:05:18.314Z,5.30
2023-01-17T14:07:50.013Z,5.20
2023-01-17T14:10:33.581Z,5.10
2023-01-17T14:13:28.291Z,5.10
2023-01-17T14:15:56.808Z,5.10
2023-01-17T14:18:45.302Z,5.00
2023-01-17T14:21:24.950Z,4.80
2023-01-17T14:24:03.069Z,4.80
2023-01-17T14:26:50.827Z,4.80
2023-01-17T14:30:00.542Z,4.80
2023-01-17T14:32:38.522Z,4.50
2023-01-17T14:35:09.261Z,4.40
2023-01-17T14:37:57.764Z,4.60
2023-01-17T14:40:30.812Z,4.60
2023-01-17T14:43:04.535Z,4.70
2023-01-17T14:45:36.762Z,4.40
2023-01-17T14:48:16.355Z,4.30
2023-01-17T14:50:46.034Z,4.30
2023-01-17T14:53:19.578Z,4.40
2023-01-17T14:55:52.242Z,4.40
2023-01-17T14:58:24.412Z,4.40
2023-01-17T15:00:58.715Z,4.30
2023-01-17T15:03:36.641Z,4.30
2023-01-17T15:06:13.587Z,4.30
2023-01-17T15:08:44.169Z,4.30
2023-01-17T15:11:21.431Z,4.30
2023-01-17T15:13:55.002Z,4.20
2023-01-17T15:16:37.398Z,4.30
2023-01-17T15:19:15.403Z,4.30
2023-01-17T15:22:00.245Z,4.20
2023-01-17T15:24:35.584Z,4.20
2023-01-17T15:27:11.208Z,4.20
2023-01-17T15:29:48.407Z,4.20
2023-01-17T15:32:23.196Z,4.20
2023-01-17T15:34:59.420Z,4.20
2023-01-17T15:37:31.453Z,4.20
2023-01-17T15:40:17.094Z,4.30
2023-01-17T15:42:48.583Z,4.30
2023-01-17T15:45:22.332Z,4.20
2023-01-17T15:47:55.392Z,4.20
2023-01-17T15:50:36.666Z,4.10
2023-01-17T15:53:10.327Z,4.10
2023-01-17T15:55:53.605Z,4.10
2023-01-17T15:58:28.470Z,4.10
2023-01-17T16:01:00.436Z,4.10
2023-01-17T16:03:34.567Z,4.10
2023-01-17T16:06:08.529Z,4.00
2023-01-17T16:08:39.990Z,4.00
2023-01-17T16:11:12.718Z,3.90
2023-01-17T16:13:43.309Z,3.90
2023-01-17T16:16:19.652Z,3.90
2023-01-17T16:18:49.436Z,3.80
2023-01-17T16:21:29.911Z,3.80
2023-01-17T16:23:58.589Z,3.80
2023-01-17T16:26:29.080Z,3.70
2023-01-17T16:28:57.602Z,3.60
2023-01-17T16:31:25.877Z,3.60
2023-01-17T16:33:54.160Z,3.50
2023-01-17T16:36:23.007Z,3.50
2023-01-17T16:38:53.453Z,3.40
2023-01-17T16:41:22.648Z,3.30
2023-01-17T16:44:02.571Z,3.30
2023-01-17T16:46:31.179Z,3.30
2023-01-17T16:49:01.704Z,3.30
2023-01-17T16:51:29.877Z,3.30
2023-01-17T16:53:59.554Z,3.30
2023-01-17T16:56:27.802Z,3.30
2023-01-17T16:58:56.459Z,3.30
2023-01-17T17:01:25.435Z,3.40
2023-01-17T17:03:53.733Z,3.40
2023-01-17T17:06:22.013Z,3.40
2023-01-17T17:08:50.217Z,3.30
2023-01-17T17:11:22.847Z,3.30
2023-01-17T17:13:52.080Z,3.30
2023-01-17T17:16:21.750Z,3.30
2023-01-17T17:18:56.859Z,3.20
2023-01-17T17:21:25.349Z,3.20
2023-01-17T17:23:56.966Z,3.20
2023-01-17T17:26:38.378Z,3.20
2023-01-17T17:29:13.127Z,3.30
2023-01-17T17:31:45.151Z,3.30
2023-01-17T17:34:15.457Z,3.30
2023-01-17T17:36:50.614Z,3.30
2023-01-17T17:39:22.412Z,3.30
2023-01-17T17:41:54.663Z,3.30
2023-01-17T17:44:22.895Z,3.40
2023-01-17T17:46:51.435Z,3.40
2023-01-17T17:49:21.849Z,3.40
2023-01-17T17:51:50.400Z,3.40
2023-01-17T17:54:19.353Z,3.40
2023-01-17T17:56:48.332Z,3.40
2023-01-17T17:59:19.554Z,3.40
2023-01-17T18:01:49.091Z,3.40
2023-01-17T18:04:17.499Z,3.30
2023-01-17T18:06:51.044Z,3.30
2023-01-17T18:09:21.323Z,3.30
2023-01-17T18:11:52.104Z,3.20
2023-01-17T18:14:24.491Z,3.10
2023-01-17T18:16:53.294Z,2.90
2023-01-17T18:19:24.978Z,2.90
2023-01-17T18:21:54.822Z,3.00
2023-01-17T18:24:25.384Z,3.10
2023-01-17T18:27:00.767Z,3.00
2023-01-17T18:29:31.985Z,3.00
2023-01-17T18:32:00.170Z,3.00
2023-01-17T18:34:29.803Z,3.10
2023-01-17T18:37:01.253Z,3.20
2023-01-17T18:39:33.806Z,3.20
2023-01-17T18:42:01.924Z,3.30
2023-01-17T18:44:31.474Z,3.30
2023-01-17T18:47:02.139Z,3.30
2023-01-17T18:49:30.287Z,3.30
2023-01-17T18:51:58.479Z,3.30
2023-01-17T18:54:27.917Z,3.30
2023-01-17T18:56:56.919Z,3.30
2023-01-17T18:59:25.877Z,3.30
2023-01-17T19:01:56.005Z,3.30
2023-01-17T19:04:24.183Z,3.30
2023-01-17T19:06:55.619Z,3.30
2023-01-17T19:09:23.774Z,3.30
2023-01-17T19:11:52.005Z,3.40
2023-01-17T19:14:20.197Z,3.30
2023-01-17T19:16:48.346Z,3.30
2023-01-17T19:19:17.868Z,3.30
2023-01-17T19:21:45.993Z,3.30
2023-01-17T19:24:14.441Z,3.30
2023-01-17T19:26:42.897Z,3.30
2023-01-17T19:29:13.651Z,3.20
2023-01-17T19:31:43.267Z,3.20
2023-01-17T19:34:14.058Z,3.10
2023-01-17T19:36:44.264Z,3.10
2023-01-17T19:39:12.741Z,3.10
2023-01-17T19:41:45.350Z,3.20
2023-01-17T19:44:16.718Z,3.20
2023-01-17T19:46:46.221Z,3.30
2023-01-17T19:49:16.354Z,3.30
2023-01-17T19:51:45.860Z,3.30
2023-01-17T19:54:15.244Z,3.40
2023-01-17T19:56:43.515Z,3.40
2023-01-17T19:59:13.767Z,3.40
2023-01-17T20:01:42.171Z,3.40
2023-01-17T20:04:10.477Z,3.60
2023-01-17T20:06:38.612Z,3.60
2023-01-17T20:09:08.322Z,3.80
2023-01-17T20:11:36.544Z,4.10
2023-01-17T20:14:05.616Z,4.20
2023-01-17T20:16:36.605Z,4.30
2023-01-17T20:19:05.063Z,4.40
2023-01-17T20:21:34.391Z,4.50
2023-01-17T20:24:04.286Z,4.50
2023-01-17T20:26:36.030Z,4.50
2023-01-17T20:29:10.613Z,4.60
2023-01-17T20:31:40.142Z,4.60
2023-01-17T20:34:10.737Z,4.60
2023-01-17T20:36:40.066Z,4.40
2023-01-17T20:39:11.052Z,4.30
2023-01-17T20:41:42.369Z,4.30
2023-01-17T20:44:13.827Z,4.50
2023-01-17T20:46:42.187Z,4.50
2023-01-17T20:49:14.854Z,4.50
2023-01-17T20:51:44.314Z,4.50
2023-01-17T20:54:14.575Z,4.50
2023-01-17T20:56:47.294Z,4.50
2023-01-17T20:59:17.187Z,4.50
2023-01-17T21:01:46.376Z,4.60
2023-01-17T21:04:16.856Z,4.60
2023-01-17T21:06:45.650Z,4.70
2023-01-17T21:09:17.217Z,4.70
2023-01-17T21:11:52.297Z,4.70
2023-01-17T21:14:28.206Z,4.60
2023-01-17T21:17:00.151Z,4.50
2023-01-17T21:19:29.269Z,4.40
2023-01-17T21:21:58.004Z,4.30
2023-01-17T21:24:30.175Z,4.30
2023-01-17T21:27:01.394Z,4.40
2023-01-17T21:29:33.164Z,4.30
2023-01-17T21:32:05.283Z,4.30
2023-01-17T21:34:35.362Z,4.30
2023-01-17T21:37:08.788Z,4.30
2023-01-17T21:39:38.716Z,4.20
2023-01-17T21:42:10.047Z,4.10
2023-01-17T21:44:39.720Z,4.10
2023-01-17T21:47:11.193Z,4.10
2023-01-17T21:49:39.891Z,4.10
2023-01-17T21:52:20.691Z,4.20
2023-01-17T21:55:08.030Z,4.20
2023-01-17T21:57:57.287Z,4.20
2023-01-17T22:00:26.614Z,3.90
2023-01-17T22:02:58.879Z,3.90
2023-01-17T22:05:28.102Z,4.00
2023-01-17T22:08:15.218Z,3.80
2023-01-17T22:10:49.752Z,3.80
2023-01-17T22:13:20.749Z,3.80
2023-01-17T22:15:59.566Z,4.00
2023-01-17T22:18:36.388Z,4.00
2023-01-17T22:21:11.284Z,4.10
2023-01-17T22:23:41.631Z,4.40
2023-01-17T22:26:14.776Z,4.40
2023-01-17T22:28:46.483Z,4.30
2023-01-17T22:31:18.120Z,4.40
2023-01-17T22:33:49.600Z,4.50
2023-01-17T22:36:22.372Z,4.50
2023-01-17T22:38:52.748Z,4.50
2023-01-17T22:41:24.002Z,4.60
2023-01-17T22:43:58.315Z,4.60
2023-01-17T22:46:28.713Z,4.60
2023-01-17T22:49:01.547Z,4.60
2023-01-17T22:51:30.425Z,4.40
2023-01-17T22:54:00.888Z,4.30
2023-01-17T22:56:32.040Z,4.40
2023-01-17T22:59:03.376Z,4.30
2023-01-17T23:01:33.503Z,4.30
2023-01-17T23:04:04.707Z,4.30
2023-01-17T23:06:34.397Z,4.40
2023-01-17T23:09:05.603Z,4.40
2023-01-17T23:11:46.655Z,4.40
2023-01-17T23:14:21.719Z,4.40
2023-01-17T23:17:10.786Z,4.30
2023-01-17T23:19:40.721Z,4.30
2023-01-17T23:22:17.475Z,4.30
2023-01-17T23:24:47.805Z,4.30
2023-01-17T23:27:36.702Z,4.20
2023-01-17T23:30:13.520Z,4.10
2023-01-17T23:32:46.200Z,4.30
2023-01-17T23:35:15.633Z,4.20
2023-01-17T23:38:02.188Z,4.20
2023-01-17T23:40:33.124Z,4.30
2023-01-17T23:43:18.877Z,4.30
2023-01-17T23:45:50.757Z,4.30
2023-01-17T23:48:19.855Z,4.30
2023-01-17T23:50:50.024Z,4.30
2023-01-17T23:53:23.535Z,4.20
2023-01-17T23:55:54.359Z,4.30
2023-01-17T23:58:25.406Z,4.20
